Terminal Aerodrome Forecast
Issued by NWS

Current Version | Previous Version | Text Only | Print | Product List | Glossary Off
Versions: 1 2 3 4 5 6 7 8 9 10 11 12 13 14 15 16 17 18 19 20 21 22 23 24 25 26 27 28 29 30 31 32 33 34

495
FTUS41 KRNK 260930 AAA
TAFLWB
TAF AMD
KLWB 260930Z 2610/2706 29010KT P6SM OVC035
     FM261400 28009KT P6SM SCT250
     FM262200 27005KT P6SM FEW200=

USA.gov is the U.S. government's official web portal to all federal, state and local government web resources and services.